Key West NAF, FL

11:23 PM EST on December 04, 2016 (GMT -0500)
Key West Naval Air Station | | Change Station

Elev 7 ft 24.58 °N, 81.69 °W | Updated 30 minutes ago

Clear
Clear
77 °F
Feels Like 77 °F
N
15
Wind Variable Wind from ESE

Today
High -- | Low -- °F
--% Chance of Precip.
Yesterday
High -- | Low -- °F
Precip. -- in
Pressure 30.02 in
Visibility 10.0 miles
Clouds Clear
Dew Point 72 °F
Humidity 84%
Rainfall 0.00 in
Snow Depth Not available.
6:56 AM 5:37 PM
Waxing Crescent, 28% visible
METAR KNQX 050353Z AUTO 11013KT 10SM CLR 25/22 A3002 RMK AO2 SLP165 T02500222 $
Pressure 30.02 in
Visibility 10.0 miles
Clouds Clear
Dew Point 72 °F
Humidity 84%
Rainfall 0.00 in
Snow Depth Not available.
6:56 AM 5:37 PM
Waxing Crescent, 28% visible
METAR KNQX 050353Z AUTO 11013KT 10SM CLR 25/22 A3002 RMK AO2 SLP165 T02500222 $

10-Day Weather Forecast

Almanac

Astronomy

Dec. 04, 2016 Rise Set
Actual Time
Civil Twilight
Nautical Twilight
Astronomical Twilight
Moon
Length of Visible Light
Length of Day
Tomorrow will be .
, % of the Moon is Illuminated

Today's Extremes

State Highs State Lows

Community

WunderPhotos

Upload Photos

1,955,759 photos uploaded!

WunderBlog® & News

Nearby

Air Quality

  Air Quality AQ Index Pollutant
Not available.

Snow Depth

Station Depth Elevation

Earthquake Activity

City Distance Mag. Time & Date
Minimum magnitude displayed is 2.5.

Coastal Water Temperatures

Place Temperature

Stations

Nearby Weather Stations

Station Location Temp. Windchill Dew Point Humidity Wind Precip. Elev Updated Type
                   

Watches & Warnings

There are currently no watches in effect.